createdAt,value
2022-11-29T00:04:50.666Z,19.70
2022-11-29T00:09:54.065Z,19.80
2022-11-29T00:14:58.847Z,19.80
2022-11-29T00:20:02.225Z,19.70
2022-11-29T00:25:06.928Z,19.70
2022-11-29T00:30:12.701Z,19.70
2022-11-29T00:35:16.138Z,19.70
2022-11-29T00:40:19.721Z,19.80
2022-11-29T00:45:24.537Z,19.70
2022-11-29T00:50:27.938Z,19.70
2022-11-29T00:55:31.320Z,19.70
2022-11-29T01:00:36.123Z,19.70
2022-11-29T01:05:39.561Z,19.70
2022-11-29T01:10:43.485Z,19.70
2022-11-29T01:15:56.955Z,19.70
2022-11-29T01:21:01.611Z,19.70
2022-11-29T01:26:07.690Z,19.70
2022-11-29T01:31:14.454Z,19.60
2022-11-29T01:36:17.955Z,19.70
2022-11-29T01:41:23.081Z,19.70
2022-11-29T01:46:29.270Z,19.70
2022-11-29T01:51:34.218Z,19.60
2022-11-29T01:56:37.732Z,19.70
2022-11-29T02:01:42.678Z,19.60
2022-11-29T02:06:46.348Z,19.60
2022-11-29T02:12:09.615Z,19.60
2022-11-29T02:17:21.336Z,19.60
2022-11-29T02:22:26.286Z,19.60
2022-11-29T02:27:58.279Z,19.50
2022-11-29T02:33:20.138Z,19.50
2022-11-29T02:38:33.226Z,19.50
2022-11-29T02:44:00.559Z,19.50
2022-11-29T02:49:11.341Z,19.50
2022-11-29T02:54:20.574Z,19.50
2022-11-29T02:59:41.928Z,19.50
2022-11-29T03:04:50.014Z,19.60
2022-11-29T03:09:57.977Z,19.50
2022-11-29T03:15:08.988Z,19.50
2022-11-29T03:20:25.079Z,19.40
2022-11-29T03:25:33.086Z,19.40
2022-11-29T03:30:39.397Z,19.40
2022-11-29T03:35:49.458Z,19.50
2022-11-29T03:40:58.979Z,19.40
2022-11-29T03:46:06.983Z,19.40
2022-11-29T03:51:15.728Z,19.40
2022-11-29T03:56:30.037Z,19.30
2022-11-29T04:02:03.966Z,19.30
2022-11-29T04:07:17.893Z,19.40
2022-11-29T04:12:58.702Z,19.30
2022-11-29T04:18:22.535Z,19.40
2022-11-29T04:23:55.691Z,19.30
2022-11-29T04:29:11.272Z,19.30
2022-11-29T04:34:31.369Z,19.30
2022-11-29T04:39:58.239Z,19.30
2022-11-29T04:45:41.312Z,19.30
2022-11-29T04:50:53.621Z,19.30
2022-11-29T04:56:07.167Z,19.30
2022-11-29T05:01:19.513Z,19.30
2022-11-29T05:06:28.961Z,19.30
2022-11-29T05:11:44.898Z,19.30
2022-11-29T05:16:50.717Z,19.20
2022-11-29T05:22:02.514Z,19.30
2022-11-29T05:27:14.872Z,19.30
2022-11-29T05:32:33.890Z,19.20
2022-11-29T05:37:44.399Z,19.20
2022-11-29T05:43:07.386Z,19.20
2022-11-29T05:48:15.448Z,19.20
2022-11-29T05:53:23.573Z,19.20
2022-11-29T05:58:30.986Z,19.10
2022-11-29T06:03:38.444Z,19.10
2022-11-29T06:08:45.971Z,19.20
2022-11-29T06:14:00.380Z,19.10
2022-11-29T06:19:34.945Z,19.10
2022-11-29T06:24:46.425Z,19.10
2022-11-29T06:29:56.606Z,19.20
2022-11-29T06:35:04.691Z,19.10
2022-11-29T06:40:12.163Z,19.10
2022-11-29T06:45:18.203Z,19.20
2022-11-29T06:50:34.591Z,19.10
2022-11-29T06:55:45.785Z,19.10
2022-11-29T07:00:53.439Z,19.00
2022-11-29T07:05:57.663Z,19.00
2022-11-29T07:11:02.209Z,19.20
2022-11-29T07:16:15.231Z,19.00
2022-11-29T07:21:22.623Z,19.00
2022-11-29T07:26:30.374Z,19.00
2022-11-29T07:31:47.112Z,19.10
2022-11-29T07:36:57.981Z,19.00
2022-11-29T07:42:05.868Z,19.10
2022-11-29T07:47:11.300Z,19.00
2022-11-29T07:52:16.131Z,19.00
2022-11-29T07:57:19.598Z,19.00
2022-11-29T08:02:29.641Z,19.00
2022-11-29T08:07:35.633Z,19.00
2022-11-29T08:12:43.707Z,18.90
2022-11-29T08:17:48.709Z,19.00
2022-11-29T08:22:55.978Z,19.00
2022-11-29T08:28:00.081Z,18.90
2022-11-29T08:33:05.381Z,18.90
2022-11-29T08:38:08.817Z,19.00
2022-11-29T08:43:12.285Z,19.00
2022-11-29T08:48:17.204Z,19.00
2022-11-29T08:53:38.720Z,18.90
2022-11-29T08:58:42.418Z,18.90
2022-11-29T09:04:07.858Z,18.90
2022-11-29T09:09:11.624Z,18.90
2022-11-29T09:14:17.157Z,18.90
2022-11-29T09:19:22.283Z,18.80
2022-11-29T09:24:25.825Z,18.90
2022-11-29T09:29:29.527Z,18.90
2022-11-29T09:34:34.401Z,18.90
2022-11-29T09:39:38.351Z,18.90
2022-11-29T09:44:53.310Z,18.80
2022-11-29T09:50:18.782Z,18.90
2022-11-29T09:55:35.629Z,18.90
2022-11-29T10:00:44.474Z,18.80
2022-11-29T10:05:51.406Z,18.80
2022-11-29T10:10:58.769Z,18.90
2022-11-29T10:16:07.964Z,18.80
2022-11-29T10:21:16.117Z,18.80
2022-11-29T10:26:20.925Z,18.80
2022-11-29T10:31:27.199Z,18.80
2022-11-29T10:36:36.318Z,18.90
2022-11-29T10:41:40.189Z,18.80
2022-11-29T10:46:43.666Z,18.80
2022-11-29T10:51:48.693Z,18.80
2022-11-29T10:56:53.636Z,18.80
2022-11-29T11:01:57.689Z,18.70
2022-11-29T11:07:03.737Z,18.80
2022-11-29T11:12:08.771Z,18.80
2022-11-29T11:17:26.453Z,18.90
2022-11-29T11:22:33.069Z,18.90
2022-11-29T11:27:40.109Z,18.90
2022-11-29T11:33:19.762Z,18.90
2022-11-29T11:38:24.772Z,18.80
2022-11-29T11:43:28.197Z,18.90
2022-11-29T11:48:31.893Z,18.80
2022-11-29T11:53:38.487Z,18.90
2022-11-29T11:58:49.140Z,18.80
2022-11-29T12:03:56.292Z,18.80
2022-11-29T12:09:05.124Z,18.90
2022-11-29T12:14:09.307Z,18.80
2022-11-29T12:19:17.219Z,18.80
2022-11-29T12:24:25.408Z,18.70
2022-11-29T12:29:30.868Z,18.80
2022-11-29T12:34:50.609Z,18.80
2022-11-29T12:40:04.867Z,18.70
2022-11-29T12:45:22.016Z,18.80
2022-11-29T12:50:33.184Z,18.80
2022-11-29T12:55:45.114Z,18.80
2022-11-29T13:00:52.927Z,18.80
2022-11-29T13:06:07.700Z,18.80
2022-11-29T13:11:16.351Z,18.80
2022-11-29T13:16:33.047Z,18.70
2022-11-29T13:21:40.822Z,18.80
2022-11-29T13:26:46.285Z,18.80
2022-11-29T13:31:50.706Z,18.80
2022-11-29T13:37:01.729Z,18.80
2022-11-29T13:42:11.841Z,18.80
2022-11-29T13:47:16.205Z,18.80
2022-11-29T13:52:39.742Z,18.80
2022-11-29T14:03:34.583Z,18.90
2022-11-29T14:09:10.673Z,18.70
2022-11-29T14:14:08.157Z,18.80
2022-11-29T14:19:35.652Z,18.80
2022-11-29T14:24:43.179Z,18.90
2022-11-29T14:29:55.613Z,18.90
2022-11-29T14:35:01.445Z,18.80
2022-11-29T14:40:27.079Z,18.80
2022-11-29T14:45:33.094Z,18.70
2022-11-29T14:50:38.040Z,18.80
2022-11-29T14:55:43.168Z,18.70
2022-11-29T15:01:10.758Z,18.80
2022-11-29T15:06:24.815Z,18.70
2022-11-29T15:11:35.567Z,18.70
2022-11-29T15:16:57.545Z,18.70
2022-11-29T15:22:08.486Z,18.70
2022-11-29T15:27:14.326Z,18.70
2022-11-29T15:32:25.834Z,18.70
2022-11-29T15:37:42.845Z,18.70
2022-11-29T15:42:48.729Z,18.80
2022-11-29T15:47:53.742Z,18.70
2022-11-29T15:53:00.941Z,18.70
2022-11-29T15:58:08.757Z,18.70
2022-11-29T16:03:20.661Z,18.70
2022-11-29T16:08:27.109Z,18.70
2022-11-29T16:13:35.865Z,18.70
2022-11-29T16:18:42.012Z,18.70
2022-11-29T16:23:46.834Z,18.70
2022-11-29T16:28:51.941Z,18.70
2022-11-29T16:33:56.846Z,18.70
2022-11-29T16:39:05.938Z,18.60
2022-11-29T16:44:45.846Z,18.60
2022-11-29T16:50:10.211Z,18.70
2022-11-29T16:55:14.032Z,18.60
2022-11-29T17:00:26.636Z,18.70
2022-11-29T17:05:31.777Z,18.60
2022-11-29T17:10:35.298Z,18.70
2022-11-29T17:15:38.875Z,18.60
2022-11-29T17:20:43.828Z,18.60
2022-11-29T17:25:47.358Z,18.60
2022-11-29T17:30:50.843Z,18.60
2022-11-29T17:35:55.674Z,18.60
2022-11-29T17:40:59.287Z,18.60
2022-11-29T17:46:08.478Z,18.60
2022-11-29T17:51:43.563Z,18.60
2022-11-29T17:56:37.726Z,18.60
2022-11-29T18:01:41.238Z,18.60
2022-11-29T18:06:50.346Z,18.70
2022-11-29T18:11:53.963Z,18.60
2022-11-29T18:16:57.527Z,18.60
2022-11-29T18:22:03.072Z,18.60
2022-11-29T18:27:06.570Z,18.50
2022-11-29T18:32:09.986Z,18.60
2022-11-29T18:37:23.980Z,18.50
2022-11-29T18:42:37.370Z,18.50
2022-11-29T18:47:40.874Z,18.50
2022-11-29T18:52:45.750Z,18.50
2022-11-29T18:57:49.822Z,18.60
2022-11-29T19:02:53.532Z,18.40
2022-11-29T19:07:58.466Z,18.50
2022-11-29T19:13:01.905Z,18.50
2022-11-29T19:18:05.486Z,18.50
2022-11-29T19:23:10.384Z,18.50
2022-11-29T19:28:14.354Z,18.30
2022-11-29T19:33:18.057Z,18.40
2022-11-29T19:38:22.942Z,18.30
2022-11-29T19:43:26.446Z,18.40
2022-11-29T19:48:29.857Z,18.40
2022-11-29T19:53:35.146Z,18.30
2022-11-29T19:58:39.556Z,18.30
2022-11-29T20:03:43.329Z,18.40
2022-11-29T20:08:48.733Z,18.30
2022-11-29T20:13:55.021Z,18.30
2022-11-29T20:18:59.209Z,18.20
2022-11-29T20:24:05.884Z,18.20
2022-11-29T20:29:10.198Z,18.30
2022-11-29T20:34:14.869Z,18.30
2022-11-29T20:39:30.992Z,18.30
2022-11-29T20:44:38.893Z,18.30
2022-11-29T20:49:42.761Z,18.20
2022-11-29T20:54:47.742Z,18.20
2022-11-29T20:59:51.212Z,18.30
2022-11-29T21:04:54.739Z,18.30
2022-11-29T21:10:01.708Z,18.20
2022-11-29T21:15:06.571Z,18.10
2022-11-29T21:20:22.482Z,18.20
2022-11-29T21:25:36.723Z,18.20
2022-11-29T21:30:41.870Z,18.20
2022-11-29T21:35:45.424Z,18.20
2022-11-29T21:40:50.365Z,18.10
2022-11-29T21:45:53.853Z,18.10
2022-11-29T21:50:57.782Z,18.10
2022-11-29T21:56:04.738Z,18.10
2022-11-29T22:01:10.254Z,18.10
2022-11-29T22:06:15.032Z,18.10
2022-11-29T22:11:31.114Z,18.10
2022-11-29T22:16:34.841Z,18.00
2022-11-29T22:21:38.342Z,18.10
2022-11-29T22:26:44.011Z,18.10
2022-11-29T22:31:50.418Z,18.10
2022-11-29T22:36:53.922Z,18.10
2022-11-29T22:41:58.817Z,18.00
2022-11-29T22:47:02.357Z,18.00
2022-11-29T22:52:06.157Z,18.00
2022-11-29T22:57:11.041Z,18.00
2022-11-29T23:02:14.627Z,18.00
2022-11-29T23:07:18.157Z,18.00
2022-11-29T23:12:23.215Z,18.00
2022-11-29T23:17:26.727Z,18.10
2022-11-29T23:22:31.882Z,18.00
2022-11-29T23:27:36.771Z,18.00
2022-11-29T23:32:40.255Z,18.00
2022-11-29T23:37:43.744Z,17.90
2022-11-29T23:42:52.320Z,18.00
2022-11-29T23:47:56.334Z,17.90
2022-11-29T23:52:59.934Z,18.00
2022-11-29T23:58:04.800Z,17.90
